sensor_id;sensor_type;location;lat;lon;timestamp;pressure;altitude;pressure_sealevel;temperature;humidity
56894;BME280;43392;50.078;13.704;2024-03-25T00:01:07;95601.56;;;5.05;77.88
56894;BME280;43392;50.078;13.704;2024-03-25T00:03:34;95606.59;;;5.02;78.01
56894;BME280;43392;50.078;13.704;2024-03-25T00:05:59;95606.34;;;5.03;77.74
56894;BME280;43392;50.078;13.704;2024-03-25T00:08:26;95606.06;;;5.05;78.01
56894;BME280;43392;50.078;13.704;2024-03-25T00:10:51;95602.34;;;5.06;77.78
56894;BME280;43392;50.078;13.704;2024-03-25T00:13:18;95600.72;;;5.10;77.56
56894;BME280;43392;50.078;13.704;2024-03-25T00:15:45;95608.16;;;5.13;77.68
56894;BME280;43392;50.078;13.704;2024-03-25T00:18:11;95598.03;;;5.15;77.63
56894;BME280;43392;50.078;13.704;2024-03-25T00:20:37;95604.97;;;5.16;77.58
56894;BME280;43392;50.078;13.704;2024-03-25T00:23:04;95606.03;;;5.15;77.65
56894;BME280;43392;50.078;13.704;2024-03-25T00:25:29;95603.34;;;5.15;77.61
56894;BME280;43392;50.078;13.704;2024-03-25T00:27:56;95602.31;;;5.16;77.72
56894;BME280;43392;50.078;13.704;2024-03-25T00:30:22;95596.19;;;5.15;77.77
56894;BME280;43392;50.078;13.704;2024-03-25T00:32:49;95599.38;;;5.17;78.07
56894;BME280;43392;50.078;13.704;2024-03-25T00:35:14;95604.97;;;5.16;77.93
56894;BME280;43392;50.078;13.704;2024-03-25T00:37:41;95597.00;;;5.16;78.13
56894;BME280;43392;50.078;13.704;2024-03-25T00:40:07;95602.03;;;5.17;78.11
56894;BME280;43392;50.078;13.704;2024-03-25T00:42:34;95591.94;;;5.14;77.88
56894;BME280;43392;50.078;13.704;2024-03-25T00:45:00;95589.03;;;5.16;77.68
56894;BME280;43392;50.078;13.704;2024-03-25T00:47:26;95594.84;;;5.18;77.41
56894;BME280;43392;50.078;13.704;2024-03-25T00:49:52;95595.38;;;5.20;77.21
56894;BME280;43392;50.078;13.704;2024-03-25T00:52:18;95602.53;;;5.19;77.19
56894;BME280;43392;50.078;13.704;2024-03-25T00:54:45;95596.94;;;5.21;77.00
56894;BME280;43392;50.078;13.704;2024-03-25T00:57:10;95605.44;;;5.23;76.53
56894;BME280;43392;50.078;13.704;2024-03-25T00:59:38;95617.41;;;5.25;76.50
56894;BME280;43392;50.078;13.704;2024-03-25T01:02:04;95617.13;;;5.27;76.23
56894;BME280;43392;50.078;13.704;2024-03-25T01:04:31;95603.81;;;5.27;76.13
56894;BME280;43392;50.078;13.704;2024-03-25T01:06:56;95605.69;;;5.26;76.04
56894;BME280;43392;50.078;13.704;2024-03-25T01:09:23;95616.56;;;5.30;75.82
56894;BME280;43392;50.078;13.704;2024-03-25T01:11:50;95619.75;;;5.32;75.57
56894;BME280;43392;50.078;13.704;2024-03-25T01:14:17;95626.38;;;5.34;75.03
56894;BME280;43392;50.078;13.704;2024-03-25T01:16:42;95622.63;;;5.35;74.99
56894;BME280;43392;50.078;13.704;2024-03-25T01:19:09;95610.13;;;5.36;74.87
56894;BME280;43392;50.078;13.704;2024-03-25T01:21:34;95610.41;;;5.40;74.56
56894;BME280;43392;50.078;13.704;2024-03-25T01:24:01;95626.06;;;5.41;74.31
56894;BME280;43392;50.078;13.704;2024-03-25T01:26:26;95615.44;;;5.41;73.99
56894;BME280;43392;50.078;13.704;2024-03-25T01:28:54;95615.94;;;5.43;73.86
56894;BME280;43392;50.078;13.704;2024-03-25T01:31:20;95624.72;;;5.44;73.57
56894;BME280;43392;50.078;13.704;2024-03-25T01:33:46;95624.72;;;5.44;73.61
56894;BME280;43392;50.078;13.704;2024-03-25T01:36:12;95621.84;;;5.40;73.35
56894;BME280;43392;50.078;13.704;2024-03-25T01:38:42;95624.50;;;5.40;73.22
56894;BME280;43392;50.078;13.704;2024-03-25T01:41:12;95625.56;;;5.39;73.04
56894;BME280;43392;50.078;13.704;2024-03-25T01:43:40;95628.72;;;5.41;73.26
56894;BME280;43392;50.078;13.704;2024-03-25T01:46:07;95619.41;;;5.44;72.93
56894;BME280;43392;50.078;13.704;2024-03-25T01:48:33;95627.91;;;5.46;73.10
56894;BME280;43392;50.078;13.704;2024-03-25T01:51:00;95623.66;;;5.45;72.91
56894;BME280;43392;50.078;13.704;2024-03-25T01:53:30;95621.00;;;5.45;73.00
56894;BME280;43392;50.078;13.704;2024-03-25T01:55:56;95621.00;;;5.45;72.95
56894;BME280;43392;50.078;13.704;2024-03-25T01:58:25;95623.38;;;5.46;72.85
56894;BME280;43392;50.078;13.704;2024-03-25T02:00:52;95627.63;;;5.47;72.73
56894;BME280;43392;50.078;13.704;2024-03-25T02:03:19;95625.50;;;5.49;72.73
56894;BME280;43392;50.078;13.704;2024-03-25T02:05:45;95633.47;;;5.49;72.62
56894;BME280;43392;50.078;13.704;2024-03-25T02:08:12;95627.63;;;5.47;72.69
56894;BME280;43392;50.078;13.704;2024-03-25T02:10:38;95619.13;;;5.45;72.79
56894;BME280;43392;50.078;13.704;2024-03-25T02:13:04;95631.09;;;5.43;72.65
56894;BME280;43392;50.078;13.704;2024-03-25T02:15:30;95637.50;;;5.42;72.90
56894;BME280;43392;50.078;13.704;2024-03-25T02:17:57;95630.09;;;5.33;72.92
56894;BME280;43392;50.078;13.704;2024-03-25T02:20:22;95639.41;;;5.31;72.84
56894;BME280;43392;50.078;13.704;2024-03-25T02:22:48;95638.09;;;5.28;72.68
56894;BME280;43392;50.078;13.704;2024-03-25T02:25:16;95635.44;;;5.28;72.79
56894;BME280;43392;50.078;13.704;2024-03-25T02:27:42;95630.41;;;5.27;73.02
56894;BME280;43392;50.078;13.704;2024-03-25T02:30:09;95615.50;;;5.26;72.84
56894;BME280;43392;50.078;13.704;2024-03-25T02:32:37;95620.84;;;5.21;72.73
56894;BME280;43392;50.078;13.704;2024-03-25T02:35:05;95633.09;;;5.17;72.66
56894;BME280;43392;50.078;13.704;2024-03-25T02:37:33;95615.84;;;5.14;72.52
56894;BME280;43392;50.078;13.704;2024-03-25T02:39:59;95639.53;;;5.11;71.94
56894;BME280;43392;50.078;13.704;2024-03-25T02:42:28;95633.94;;;5.07;72.02
56894;BME280;43392;50.078;13.704;2024-03-25T02:44:55;95637.44;;;5.03;71.75
56894;BME280;43392;50.078;13.704;2024-03-25T02:47:22;95636.91;;;5.01;71.85
56894;BME280;43392;50.078;13.704;2024-03-25T02:49:47;95648.88;;;4.98;72.04
56894;BME280;43392;50.078;13.704;2024-03-25T02:52:14;95651.00;;;4.96;71.89
56894;BME280;43392;50.078;13.704;2024-03-25T02:54:40;95654.72;;;4.95;71.44
56894;BME280;43392;50.078;13.704;2024-03-25T02:57:06;95661.63;;;4.96;71.54
56894;BME280;43392;50.078;13.704;2024-03-25T02:59:32;95653.41;;;4.93;71.57
56894;BME280;43392;50.078;13.704;2024-03-25T03:01:58;95655.53;;;4.91;71.12
56894;BME280;43392;50.078;13.704;2024-03-25T03:04:24;95654.44;;;4.92;71.51
56894;BME280;43392;50.078;13.704;2024-03-25T03:06:50;95660.56;;;4.92;71.61
56894;BME280;43392;50.078;13.704;2024-03-25T03:09:16;95653.13;;;4.94;71.14
56894;BME280;43392;50.078;13.704;2024-03-25T03:11:42;95641.72;;;4.94;70.88
56894;BME280;43392;50.078;13.704;2024-03-25T03:14:08;95652.34;;;4.94;70.46
56894;BME280;43392;50.078;13.704;2024-03-25T03:16:35;95644.66;;;4.87;70.11
56894;BME280;43392;50.078;13.704;2024-03-25T03:19:00;95648.59;;;4.95;70.70
56894;BME280;43392;50.078;13.704;2024-03-25T03:21:27;95643.06;;;4.91;70.46
56894;BME280;43392;50.078;13.704;2024-03-25T03:23:53;95650.50;;;4.89;70.36
56894;BME280;43392;50.078;13.704;2024-03-25T03:26:19;95655.28;;;4.87;70.26
56894;BME280;43392;50.078;13.704;2024-03-25T03:28:44;95669.09;;;4.89;70.48
56894;BME280;43392;50.078;13.704;2024-03-25T03:31:11;95677.59;;;4.91;70.44
56894;BME280;43392;50.078;13.704;2024-03-25T03:33:36;95664.81;;;4.93;70.69
56894;BME280;43392;50.078;13.704;2024-03-25T03:36:03;95674.91;;;4.96;70.53
56894;BME280;43392;50.078;13.704;2024-03-25T03:38:29;95673.84;;;4.97;70.80
56894;BME280;43392;50.078;13.704;2024-03-25T03:40:59;95665.59;;;4.99;70.77
56894;BME280;43392;50.078;13.704;2024-03-25T03:43:25;95666.38;;;4.99;70.68
56894;BME280;43392;50.078;13.704;2024-03-25T03:45:51;95678.09;;;4.98;70.83
56894;BME280;43392;50.078;13.704;2024-03-25T03:48:17;95691.38;;;4.98;70.82
56894;BME280;43392;50.078;13.704;2024-03-25T03:50:44;95703.34;;;4.96;71.19
56894;BME280;43392;50.078;13.704;2024-03-25T03:53:10;95697.22;;;4.95;71.29
56894;BME280;43392;50.078;13.704;2024-03-25T03:55:36;95709.16;;;4.98;71.30
56894;BME280;43392;50.078;13.704;2024-03-25T03:58:02;95714.19;;;4.99;71.33
56894;BME280;43392;50.078;13.704;2024-03-25T04:00:29;95716.59;;;5.01;71.21
56894;BME280;43392;50.078;13.704;2024-03-25T04:02:54;95720.06;;;4.96;71.46
56894;BME280;43392;50.078;13.704;2024-03-25T04:05:21;95716.63;;;4.96;71.79
56894;BME280;43392;50.078;13.704;2024-03-25T04:07:47;95723.25;;;4.98;71.95
56894;BME280;43392;50.078;13.704;2024-03-25T04:10:13;95730.69;;;5.01;71.99
56894;BME280;43392;50.078;13.704;2024-03-25T04:12:39;95722.72;;;5.01;71.77
56894;BME280;43392;50.078;13.704;2024-03-25T04:15:06;95727.75;;;5.03;71.89
56894;BME280;43392;50.078;13.704;2024-03-25T04:17:31;95735.19;;;5.06;72.15
56894;BME280;43392;50.078;13.704;2024-03-25T04:20:01;95734.91;;;5.07;72.08
56894;BME280;43392;50.078;13.704;2024-03-25T04:22:27;95732.78;;;5.09;71.95
56894;BME280;43392;50.078;13.704;2024-03-25T04:24:53;95742.06;;;5.12;71.80
56894;BME280;43392;50.078;13.704;2024-03-25T04:27:19;95744.72;;;5.12;71.91
56894;BME280;43392;50.078;13.704;2024-03-25T04:29:49;95741.25;;;5.11;72.04
56894;BME280;43392;50.078;13.704;2024-03-25T04:32:15;95747.13;;;5.13;71.90
56894;BME280;43392;50.078;13.704;2024-03-25T04:34:41;95747.38;;;5.12;72.19
56894;BME280;43392;50.078;13.704;2024-03-25T04:37:08;95752.97;;;5.10;71.93
56894;BME280;43392;50.078;13.704;2024-03-25T04:39:33;95751.66;;;5.08;71.90
56894;BME280;43392;50.078;13.704;2024-03-25T04:41:58;95754.31;;;4.98;71.54
56894;BME280;43392;50.078;13.704;2024-03-25T04:44:24;95759.94;;;4.91;71.85
56894;BME280;43392;50.078;13.704;2024-03-25T04:46:49;95751.44;;;4.89;72.09
56894;BME280;43392;50.078;13.704;2024-03-25T04:49:15;95752.78;;;4.87;71.97
56894;BME280;43392;50.078;13.704;2024-03-25T04:51:40;95756.19;;;4.92;72.04
56894;BME280;43392;50.078;13.704;2024-03-25T04:54:06;95759.38;;;4.94;72.20
56894;BME280;43392;50.078;13.704;2024-03-25T04:56:32;95768.94;;;4.95;72.11
56894;BME280;43392;50.078;13.704;2024-03-25T04:58:57;95775.56;;;4.98;71.96
56894;BME280;43392;50.078;13.704;2024-03-25T05:01:23;95777.72;;;4.96;72.15
56894;BME280;43392;50.078;13.704;2024-03-25T05:03:49;95780.91;;;4.93;72.14
56894;BME280;43392;50.078;13.704;2024-03-25T05:06:14;95779.03;;;4.93;72.23
56894;BME280;43392;50.078;13.704;2024-03-25T05:08:40;95789.91;;;4.97;72.36
56894;BME280;43392;50.078;13.704;2024-03-25T05:11:05;95783.56;;;4.98;71.91
56894;BME280;43392;50.078;13.704;2024-03-25T05:13:31;95785.41;;;4.97;72.03
56894;BME280;43392;50.078;13.704;2024-03-25T05:15:56;95796.81;;;4.98;71.86
56894;BME280;43392;50.078;13.704;2024-03-25T05:18:22;95796.59;;;4.89;72.04
56894;BME280;43392;50.078;13.704;2024-03-25T05:20:47;95792.84;;;4.85;71.93
56894;BME280;43392;50.078;13.704;2024-03-25T05:23:12;95785.41;;;4.82;72.02
56894;BME280;43392;50.078;13.704;2024-03-25T05:25:38;95783.31;;;4.79;71.84
56894;BME280;43392;50.078;13.704;2024-03-25T05:28:04;95786.22;;;4.78;71.56
56894;BME280;43392;50.078;13.704;2024-03-25T05:30:30;95799.78;;;4.81;71.66
56894;BME280;43392;50.078;13.704;2024-03-25T05:32:55;95807.47;;;4.83;71.85
56894;BME280;43392;50.078;13.704;2024-03-25T05:35:21;95795.25;;;4.87;71.82
56894;BME280;43392;50.078;13.704;2024-03-25T05:37:47;95795.25;;;4.87;71.82
56894;BME280;43392;50.078;13.704;2024-03-25T05:40:12;95798.69;;;4.82;71.52
56894;BME280;43392;50.078;13.704;2024-03-25T05:42:38;95795.78;;;4.79;71.96
56894;BME280;43392;50.078;13.704;2024-03-25T05:45:04;95810.94;;;4.78;72.02
56894;BME280;43392;50.078;13.704;2024-03-25T05:47:29;95803.47;;;4.80;71.82
56894;BME280;43392;50.078;13.704;2024-03-25T05:49:55;95811.44;;;4.80;71.77
56894;BME280;43392;50.078;13.704;2024-03-25T05:52:20;95813.84;;;4.77;72.07
56894;BME280;43392;50.078;13.704;2024-03-25T05:54:46;95819.69;;;4.79;72.10
56894;BME280;43392;50.078;13.704;2024-03-25T05:57:12;95819.94;;;4.82;72.07
56894;BME280;43392;50.078;13.704;2024-03-25T05:59:37;95827.66;;;4.89;71.90
56894;BME280;43392;50.078;13.704;2024-03-25T06:02:03;95825.81;;;4.89;71.75
56894;BME280;43392;50.078;13.704;2024-03-25T06:04:28;95812.50;;;4.94;71.80
56894;BME280;43392;50.078;13.704;2024-03-25T06:06:54;95825.25;;;5.02;71.71
56894;BME280;43392;50.078;13.704;2024-03-25T06:09:19;95829.50;;;5.03;71.68
56894;BME280;43392;50.078;13.704;2024-03-25T06:11:45;95837.19;;;5.00;71.62
56894;BME280;43392;50.078;13.704;2024-03-25T06:14:10;95832.97;;;4.94;71.61
56894;BME280;43392;50.078;13.704;2024-03-25T06:16:36;95841.72;;;4.94;71.67
56894;BME280;43392;50.078;13.704;2024-03-25T06:19:01;95842.00;;;4.93;71.30
56894;BME280;43392;50.078;13.704;2024-03-25T06:21:27;95846.50;;;4.97;71.54
56894;BME280;43392;50.078;13.704;2024-03-25T06:23:52;95844.13;;;5.11;71.08
56894;BME280;43392;50.078;13.704;2024-03-25T06:26:18;95839.03;;;5.14;70.97
56894;BME280;43392;50.078;13.704;2024-03-25T06:28:43;95856.03;;;5.18;71.04
56894;BME280;43392;50.078;13.704;2024-03-25T06:31:08;95861.09;;;5.25;71.12
56894;BME280;43392;50.078;13.704;2024-03-25T06:33:53;95874.38;;;5.30;70.69
56894;BME280;43392;50.078;13.704;2024-03-25T06:36:37;95877.56;;;5.32;70.68
56894;BME280;43392;50.078;13.704;2024-03-25T06:39:03;95870.91;;;5.34;70.76
56894;BME280;43392;50.078;13.704;2024-03-25T06:41:28;95879.41;;;5.42;70.41
56894;BME280;43392;50.078;13.704;2024-03-25T06:43:54;95880.72;;;5.44;70.22
56894;BME280;43392;50.078;13.704;2024-03-25T06:46:19;95882.56;;;5.49;70.04
56894;BME280;43392;50.078;13.704;2024-03-25T06:48:45;95886.78;;;5.65;70.15
56894;BME280;43392;50.078;13.704;2024-03-25T06:51:10;95883.03;;;5.76;69.52
56894;BME280;43392;50.078;13.704;2024-03-25T06:53:36;95887.28;;;5.82;68.69
56894;BME280;43392;50.078;13.704;2024-03-25T06:56:01;95893.13;;;5.79;68.98
56894;BME280;43392;50.078;13.704;2024-03-25T06:58:28;95893.94;;;5.79;69.07
56894;BME280;43392;50.078;13.704;2024-03-25T07:00:54;95887.03;;;5.78;68.78
56894;BME280;43392;50.078;13.704;2024-03-25T07:03:21;95899.53;;;5.78;68.34
56894;BME280;43392;50.078;13.704;2024-03-25T07:05:48;95894.50;;;5.76;67.87
56894;BME280;43392;50.078;13.704;2024-03-25T07:08:15;95902.72;;;5.75;67.62
56894;BME280;43392;50.078;13.704;2024-03-25T07:10:44;95899.00;;;5.76;67.68
56894;BME280;43392;50.078;13.704;2024-03-25T07:13:10;95900.06;;;5.90;67.57
56894;BME280;43392;50.078;13.704;2024-03-25T07:15:36;95901.09;;;5.94;67.39
56894;BME280;43392;50.078;13.704;2024-03-25T07:18:02;95894.16;;;6.03;67.20
56894;BME280;43392;50.078;13.704;2024-03-25T07:20:28;95898.88;;;6.16;66.96
56894;BME280;43392;50.078;13.704;2024-03-25T07:22:54;95904.41;;;6.30;66.49
56894;BME280;43392;50.078;13.704;2024-03-25T07:25:20;95899.50;;;6.47;65.56
56894;BME280;43392;50.078;13.704;2024-03-25T07:27:45;95902.09;;;6.62;65.29
56894;BME280;43392;50.078;13.704;2024-03-25T07:30:11;95904.53;;;6.58;64.67
56894;BME280;43392;50.078;13.704;2024-03-25T07:32:36;95909.66;;;6.45;64.61
56894;BME280;43392;50.078;13.704;2024-03-25T07:35:02;95907.59;;;6.32;64.39
56894;BME280;43392;50.078;13.704;2024-03-25T07:37:28;95907.38;;;6.18;64.89
56894;BME280;43392;50.078;13.704;2024-03-25T07:39:53;95905.25;;;6.20;65.28
56894;BME280;43392;50.078;13.704;2024-03-25T07:42:19;95908.16;;;6.24;65.39
56894;BME280;43392;50.078;13.704;2024-03-25T07:44:44;95917.00;;;6.14;65.14
56894;BME280;43392;50.078;13.704;2024-03-25T07:47:10;95922.31;;;6.19;65.23
56894;BME280;43392;50.078;13.704;2024-03-25T07:49:35;95927.09;;;6.22;65.08
56894;BME280;43392;50.078;13.704;2024-03-25T07:52:01;95928.41;;;6.25;64.92
56894;BME280;43392;50.078;13.704;2024-03-25T07:54:27;95928.09;;;6.36;65.21
56894;BME280;43392;50.078;13.704;2024-03-25T07:56:53;95937.66;;;6.37;64.80
56894;BME280;43392;50.078;13.704;2024-03-25T07:59:19;95946.97;;;6.35;64.35
56894;BME280;43392;50.078;13.704;2024-03-25T08:01:44;95947.28;;;6.28;64.07
56894;BME280;43392;50.078;13.704;2024-03-25T08:04:10;95955.53;;;6.27;63.93
56894;BME280;43392;50.078;13.704;2024-03-25T08:06:35;95954.97;;;6.30;63.88
56894;BME280;43392;50.078;13.704;2024-03-25T08:09:01;95938.44;;;6.38;63.69
56894;BME280;43392;50.078;13.704;2024-03-25T08:11:26;95944.81;;;6.42;63.85
56894;BME280;43392;50.078;13.704;2024-03-25T08:13:52;95958.38;;;6.50;63.42
56894;BME280;43392;50.078;13.704;2024-03-25T08:16:17;95955.69;;;6.55;63.35
56894;BME280;43392;50.078;13.704;2024-03-25T08:18:43;95951.16;;;6.56;62.36
56894;BME280;43392;50.078;13.704;2024-03-25T08:21:08;95965.28;;;6.51;62.50
56894;BME280;43392;50.078;13.704;2024-03-25T08:23:33;95965.31;;;6.46;62.43
56894;BME280;43392;50.078;13.704;2024-03-25T08:25:59;95965.34;;;6.41;62.66
56894;BME280;43392;50.078;13.704;2024-03-25T08:28:25;95974.66;;;6.39;62.65
56894;BME280;43392;50.078;13.704;2024-03-25T08:30:50;95965.34;;;6.41;62.73
56894;BME280;43392;50.078;13.704;2024-03-25T08:33:16;95969.06;;;6.40;62.39
56894;BME280;43392;50.078;13.704;2024-03-25T08:35:41;95982.09;;;6.42;62.56
56894;BME280;43392;50.078;13.704;2024-03-25T08:38:07;95976.53;;;6.38;62.29
56894;BME280;43392;50.078;13.704;2024-03-25T08:40:32;95981.06;;;6.38;61.83
56894;BME280;43392;50.078;13.704;2024-03-25T08:42:57;95979.19;;;6.38;61.91
56894;BME280;43392;50.078;13.704;2024-03-25T08:45:23;95986.34;;;6.43;62.43
56894;BME280;43392;50.078;13.704;2024-03-25T08:47:48;95987.41;;;6.42;62.62
56894;BME280;43392;50.078;13.704;2024-03-25T08:50:14;95993.03;;;6.40;62.82
56894;BME280;43392;50.078;13.704;2024-03-25T08:52:39;95987.69;;;6.45;62.82
56894;BME280;43392;50.078;13.704;2024-03-25T08:55:06;95995.38;;;6.47;62.41
56894;BME280;43392;50.078;13.704;2024-03-25T08:57:31;95995.66;;;6.45;62.14
56894;BME280;43392;50.078;13.704;2024-03-25T08:59:57;95997.81;;;6.43;62.34
56894;BME280;43392;50.078;13.704;2024-03-25T09:02:22;95995.66;;;6.45;62.15
56894;BME280;43392;50.078;13.704;2024-03-25T09:04:48;96006.84;;;6.47;61.36
56894;BME280;43392;50.078;13.704;2024-03-25T09:07:14;95998.03;;;6.52;61.48
56894;BME280;43392;50.078;13.704;2024-03-25T09:09:40;96003.84;;;6.59;61.60
56894;BME280;43392;50.078;13.704;2024-03-25T09:12:24;95993.97;;;6.69;61.15
56894;BME280;43392;50.078;13.704;2024-03-25T09:14:49;96011.28;;;6.72;59.90
56894;BME280;43392;50.078;13.704;2024-03-25T09:17:15;96004.31;;;6.76;59.76
56894;BME280;43392;50.078;13.704;2024-03-25T09:19:41;96009.59;;;6.86;59.88
56894;BME280;43392;50.078;13.704;2024-03-25T09:22:06;96015.19;;;6.90;59.58
56894;BME280;43392;50.078;13.704;2024-03-25T09:24:32;96010.88;;;6.94;59.81
56894;BME280;43392;50.078;13.704;2024-03-25T09:26:57;96016.25;;;6.89;59.43
56894;BME280;43392;50.078;13.704;2024-03-25T09:29:23;96011.44;;;6.91;59.53
56894;BME280;43392;50.078;13.704;2024-03-25T09:31:48;96010.59;;;6.95;59.74
56894;BME280;43392;50.078;13.704;2024-03-25T09:34:14;96019.16;;;6.97;59.72
56894;BME280;43392;50.078;13.704;2024-03-25T09:36:39;96006.59;;;6.98;59.04
56894;BME280;43392;50.078;13.704;2024-03-25T09:39:05;96027.38;;;7.01;59.06
56894;BME280;43392;50.078;13.704;2024-03-25T09:41:30;96013.78;;;7.02;58.76
56894;BME280;43392;50.078;13.704;2024-03-25T09:43:56;96024.41;;;7.07;58.48
56894;BME280;43392;50.078;13.704;2024-03-25T09:46:23;96028.91;;;7.17;58.84
56894;BME280;43392;50.078;13.704;2024-03-25T09:48:51;96022.63;;;7.31;58.90
56894;BME280;43392;50.078;13.704;2024-03-25T09:51:17;96014.53;;;7.47;58.79
56894;BME280;43392;50.078;13.704;2024-03-25T09:53:43;96034.03;;;7.42;57.62
56894;BME280;43392;50.078;13.704;2024-03-25T09:56:09;96019.38;;;7.40;57.66
56894;BME280;43392;50.078;13.704;2024-03-25T09:58:35;96028.72;;;7.42;57.42
56894;BME280;43392;50.078;13.704;2024-03-25T10:01:01;96033.53;;;7.40;57.15
56894;BME280;43392;50.078;13.704;2024-03-25T10:03:27;96029.84;;;7.36;57.36
56894;BME280;43392;50.078;13.704;2024-03-25T10:05:52;96037.25;;;7.39;57.12
56894;BME280;43392;50.078;13.704;2024-03-25T10:08:22;96023.31;;;7.52;57.05
56894;BME280;43392;50.078;13.704;2024-03-25T10:10:47;96028.88;;;7.56;56.55
56894;BME280;43392;50.078;13.704;2024-03-25T10:13:13;96042.03;;;7.42;55.47
56894;BME280;43392;50.078;13.704;2024-03-25T10:15:39;96042.06;;;7.37;54.60
56894;BME280;43392;50.078;13.704;2024-03-25T10:18:05;96046.38;;;7.33;54.62
56894;BME280;43392;50.078;13.704;2024-03-25T10:20:30;96035.19;;;7.31;54.58
56894;BME280;43392;50.078;13.704;2024-03-25T10:22:56;96043.16;;;7.36;55.06
56894;BME280;43392;50.078;13.704;2024-03-25T10:25:29;96033.81;;;7.39;53.66
56894;BME280;43392;50.078;13.704;2024-03-25T10:27:58;96040.69;;;7.45;54.81
56894;BME280;43392;50.078;13.704;2024-03-25T10:30:24;96021.47;;;7.48;54.98
56894;BME280;43392;50.078;13.704;2024-03-25T10:33:00;96031.22;;;7.62;54.47
56894;BME280;43392;50.078;13.704;2024-03-25T10:35:27;96025.34;;;7.65;54.90
56894;BME280;43392;50.078;13.704;2024-03-25T10:37:56;96028.78;;;7.66;53.78
56894;BME280;43392;50.078;13.704;2024-03-25T10:40:27;96016.06;;;7.58;53.00
56894;BME280;43392;50.078;13.704;2024-03-25T10:43:13;96027.84;;;7.52;54.18
56894;BME280;43392;50.078;13.704;2024-03-25T10:45:43;96033.44;;;7.55;55.24
56894;BME280;43392;50.078;13.704;2024-03-25T10:48:17;96024.81;;;7.63;54.80
56894;BME280;43392;50.078;13.704;2024-03-25T10:50:44;96016.22;;;7.71;55.06
56894;BME280;43392;50.078;13.704;2024-03-25T10:53:11;96022.81;;;7.79;54.93
56894;BME280;43392;50.078;13.704;2024-03-25T10:55:40;96031.63;;;7.79;54.74
56894;BME280;43392;50.078;13.704;2024-03-25T10:58:08;96020.38;;;7.82;55.09
56894;BME280;43392;50.078;13.704;2024-03-25T11:00:35;96026.81;;;7.81;54.81
56894;BME280;43392;50.078;13.704;2024-03-25T11:03:01;96022.06;;;7.73;54.86
56894;BME280;43392;50.078;13.704;2024-03-25T11:05:27;96016.41;;;7.80;55.26
56894;BME280;43392;50.078;13.704;2024-03-25T11:07:52;96028.38;;;7.82;55.25
56894;BME280;43392;50.078;13.704;2024-03-25T11:10:18;96021.69;;;7.85;55.09
56894;BME280;43392;50.078;13.704;2024-03-25T11:12:43;96026.22;;;7.89;55.15
56894;BME280;43392;50.078;13.704;2024-03-25T11:15:09;96019.72;;;7.95;54.75
56894;BME280;43392;50.078;13.704;2024-03-25T11:17:35;96022.88;;;8.02;54.84
56894;BME280;43392;50.078;13.704;2024-03-25T11:20:15;96022.81;;;8.08;54.27
56894;BME280;43392;50.078;13.704;2024-03-25T11:23:08;96017.03;;;8.24;53.98
56894;BME280;43392;50.078;13.704;2024-03-25T11:25:34;96017.03;;;8.29;53.73
56894;BME280;43392;50.078;13.704;2024-03-25T11:27:59;96022.81;;;8.36;53.63
56894;BME280;43392;50.078;13.704;2024-03-25T11:30:25;96014.53;;;8.38;53.58
56894;BME280;43392;50.078;13.704;2024-03-25T11:32:52;96020.66;;;8.38;53.47
56894;BME280;43392;50.078;13.704;2024-03-25T11:35:18;96019.53;;;8.44;53.62
56894;BME280;43392;50.078;13.704;2024-03-25T11:37:44;96018.91;;;8.52;53.49
56894;BME280;43392;50.078;13.704;2024-03-25T11:40:12;96026.63;;;8.54;52.00
56894;BME280;43392;50.078;13.704;2024-03-25T11:42:39;96022.31;;;8.58;51.64
56894;BME280;43392;50.078;13.704;2024-03-25T11:45:06;96025.72;;;8.63;51.36
56894;BME280;43392;50.078;13.704;2024-03-25T11:47:32;96011.75;;;8.72;51.24
56894;BME280;43392;50.078;13.704;2024-03-25T11:49:57;96022.94;;;8.74;51.28
56894;BME280;43392;50.078;13.704;2024-03-25T11:52:23;96018.38;;;8.74;51.14
56894;BME280;43392;50.078;13.704;2024-03-25T11:54:55;96014.16;;;8.68;50.77
56894;BME280;43392;50.078;13.704;2024-03-25T11:57:21;96012.34;;;8.63;51.46
56894;BME280;43392;50.078;13.704;2024-03-25T11:59:48;96013.97;;;8.64;52.06
56894;BME280;43392;50.078;13.704;2024-03-25T12:02:15;96005.34;;;8.67;52.32
56894;BME280;43392;50.078;13.704;2024-03-25T12:04:44;96014.97;;;8.68;52.60
56894;BME280;43392;50.078;13.704;2024-03-25T12:07:14;96007.31;;;8.62;52.52
56894;BME280;43392;50.078;13.704;2024-03-25T12:09:40;96014.19;;;8.44;52.63
56894;BME280;43392;50.078;13.704;2024-03-25T12:12:25;96004.47;;;8.30;52.49
56894;BME280;43392;50.078;13.704;2024-03-25T12:14:51;96011.69;;;8.24;52.30
56894;BME280;43392;50.078;13.704;2024-03-25T12:17:17;96014.94;;;8.21;51.86
56894;BME280;43392;50.078;13.704;2024-03-25T12:19:43;96006.34;;;8.29;51.57
56894;BME280;43392;50.078;13.704;2024-03-25T12:22:08;96004.47;;;8.30;50.58
56894;BME280;43392;50.078;13.704;2024-03-25T12:24:34;96002.81;;;8.34;50.59
56894;BME280;43392;50.078;13.704;2024-03-25T12:27:00;95996.91;;;8.37;50.42
56894;BME280;43392;50.078;13.704;2024-03-25T12:29:26;96004.00;;;8.46;50.46
56894;BME280;43392;50.078;13.704;2024-03-25T12:31:56;96010.31;;;8.55;50.30
56894;BME280;43392;50.078;13.704;2024-03-25T12:34:21;96005.72;;;8.61;50.20
56894;BME280;43392;50.078;13.704;2024-03-25T12:36:48;96003.97;;;8.70;50.50
56894;BME280;43392;50.078;13.704;2024-03-25T12:39:17;96000.13;;;8.81;49.88
56894;BME280;43392;50.078;13.704;2024-03-25T12:41:44;95987.53;;;8.82;49.77
56894;BME280;43392;50.078;13.704;2024-03-25T12:44:12;95995.47;;;8.87;49.17
56894;BME280;43392;50.078;13.704;2024-03-25T12:46:38;95988.75;;;8.89;48.98
56894;BME280;43392;50.078;13.704;2024-03-25T12:49:05;95996.72;;;8.94;48.83
56894;BME280;43392;50.078;13.704;2024-03-25T12:51:31;95988.69;;;8.94;48.61
56894;BME280;43392;50.078;13.704;2024-03-25T12:53:56;95996.78;;;8.89;49.05
56894;BME280;43392;50.078;13.704;2024-03-25T12:56:22;95996.78;;;8.89;49.80